createdAt,value
2023-01-24T00:00:12.550Z,86.88
2023-01-24T00:03:14.855Z,96.25
2023-01-24T00:06:17.557Z,78.78
2023-01-24T00:09:20.438Z,81.78
2023-01-24T00:12:22.753Z,88.00
2023-01-24T00:15:25.100Z,84.32
2023-01-24T00:18:27.368Z,81.93
2023-01-24T00:21:29.474Z,85.43
2023-01-24T00:24:34.076Z,85.45
2023-01-24T00:27:36.389Z,85.00
2023-01-24T00:30:38.611Z,88.20
2023-01-24T00:33:41.133Z,80.05
2023-01-24T00:36:43.212Z,83.47
2023-01-24T00:39:45.396Z,84.07
2023-01-24T00:42:47.573Z,76.65
2023-01-24T00:45:49.946Z,83.35
2023-01-24T00:48:52.069Z,81.72
2023-01-24T00:51:54.593Z,79.70
2023-01-24T00:54:56.915Z,77.10
2023-01-24T00:57:59.125Z,75.03
2023-01-24T01:01:03.937Z,76.97
2023-01-24T01:04:06.236Z,71.55
2023-01-24T01:07:08.291Z,81.20
2023-01-24T01:10:11.569Z,78.20
2023-01-24T01:13:14.816Z,88.22
2023-01-24T01:16:20.031Z,79.30
2023-01-24T01:19:22.195Z,89.60
2023-01-24T01:22:24.262Z,90.43
2023-01-24T01:25:26.426Z,82.30
2023-01-24T01:28:28.932Z,84.32
2023-01-24T01:31:31.112Z,74.40
2023-01-24T01:34:33.271Z,77.75
2023-01-24T01:37:35.754Z,81.57
2023-01-24T01:40:42.955Z,81.35
2023-01-24T01:44:03.762Z,77.10
2023-01-24T01:47:26.820Z,79.60
2023-01-24T01:50:41.331Z,80.20
2023-01-24T01:53:59.210Z,76.97
2023-01-24T01:57:12.093Z,79.88
2023-01-24T02:00:23.128Z,77.05
2023-01-24T02:03:40.581Z,73.15
2023-01-24T02:07:02.359Z,75.32
2023-01-24T02:10:05.851Z,69.45
2023-01-24T02:13:08.431Z,70.47
2023-01-24T02:16:15.570Z,72.88
2023-01-24T02:19:36.563Z,66.65
2023-01-24T02:23:07.717Z,82.85
2023-01-24T02:29:16.985Z,73.22
2023-01-24T02:32:19.604Z,72.82
2023-01-24T02:35:25.721Z,80.63
2023-01-24T02:38:30.008Z,72.93
2023-01-24T02:41:44.317Z,71.18
2023-01-24T02:44:58.297Z,75.28
2023-01-24T02:48:00.401Z,77.40
2023-01-24T02:51:20.959Z,79.78
2023-01-24T02:54:23.351Z,70.72
2023-01-24T02:57:43.805Z,75.18
2023-01-24T03:00:46.736Z,70.30
2023-01-24T03:03:50.165Z,75.78
2023-01-24T03:06:52.434Z,73.07
2023-01-24T03:09:54.644Z,73.50
2023-01-24T03:13:15.286Z,66.55
2023-01-24T03:16:36.522Z,70.75
2023-01-24T03:19:57.320Z,67.90
2023-01-24T03:23:17.980Z,72.53
2023-01-24T03:26:38.551Z,69.50
2023-01-24T03:29:59.332Z,71.88
2023-01-24T03:33:21.657Z,72.38
2023-01-24T03:36:33.066Z,80.20
2023-01-24T03:39:53.788Z,72.22
2023-01-24T03:42:56.014Z,81.93
2023-01-24T03:45:58.225Z,67.15
2023-01-24T03:49:00.637Z,74.10
2023-01-24T03:52:21.442Z,76.88
2023-01-24T03:55:24.004Z,82.22
2023-01-24T03:58:29.564Z,85.93
2023-01-24T04:01:31.729Z,76.60
2023-01-24T04:04:52.652Z,78.55
2023-01-24T04:07:55.647Z,84.72
2023-01-24T04:10:58.131Z,77.50
2023-01-24T04:14:00.348Z,84.68
2023-01-24T04:17:02.520Z,82.82
2023-01-24T04:20:05.091Z,85.75
2023-01-24T04:23:08.699Z,76.82
2023-01-24T04:26:10.844Z,85.60
2023-01-24T04:29:13.049Z,80.88
2023-01-24T04:32:15.210Z,85.63
2023-01-24T04:35:19.974Z,84.22
2023-01-24T04:38:22.265Z,87.38
2023-01-24T04:41:24.459Z,83.15
2023-01-24T04:44:26.657Z,89.20
2023-01-24T04:47:28.790Z,86.40
2023-01-24T04:50:31.729Z,82.82
2023-01-24T04:53:36.606Z,81.18
2023-01-24T04:56:39.174Z,97.93
2023-01-24T04:59:41.371Z,82.93
2023-01-24T05:02:43.514Z,84.82
2023-01-24T05:05:53.800Z,79.03
2023-01-24T05:08:57.144Z,77.43
2023-01-24T05:11:59.288Z,90.72
2023-01-24T05:15:01.436Z,89.15
2023-01-24T05:18:04.339Z,86.78
2023-01-24T05:21:14.396Z,87.05
2023-01-24T05:24:16.661Z,92.53
2023-01-24T05:27:18.770Z,88.30
2023-01-24T05:30:23.129Z,83.57
2023-01-24T05:33:25.204Z,88.65
2023-01-24T05:36:27.364Z,80.97
2023-01-24T05:39:29.520Z,86.22
2023-01-24T05:42:32.222Z,83.75
2023-01-24T05:45:34.315Z,83.13
2023-01-24T05:48:36.447Z,84.22
2023-01-24T05:51:38.657Z,84.35
2023-01-24T05:54:40.718Z,86.72
2023-01-24T05:57:42.731Z,89.47
2023-01-24T06:00:45.104Z,80.93
2023-01-24T06:03:49.917Z,89.28
2023-01-24T06:06:52.084Z,88.90
2023-01-24T06:09:54.165Z,95.72
2023-01-24T06:12:56.440Z,98.85
2023-01-24T06:16:02.837Z,82.15
2023-01-24T06:19:05.159Z,85.53
2023-01-24T06:22:25.813Z,84.90
2023-01-24T06:25:28.338Z,87.20
2023-01-24T06:28:30.850Z,82.22
2023-01-24T06:31:46.623Z,87.20
2023-01-24T06:35:10.136Z,86.10
2023-01-24T06:38:21.396Z,85.65
2023-01-24T06:41:24.672Z,90.60
2023-01-24T06:44:27.510Z,95.68
2023-01-24T06:47:29.643Z,94.63
2023-01-24T06:50:33.566Z,109.53
2023-01-24T06:53:35.705Z,94.68
2023-01-24T06:56:37.823Z,82.70
2023-01-24T06:59:40.061Z,83.70
2023-01-24T07:02:43.189Z,80.93
2023-01-24T07:05:45.344Z,85.13
2023-01-24T07:08:47.433Z,79.55
2023-01-24T07:11:53.471Z,82.80
2023-01-24T07:14:55.670Z,75.55
2023-01-24T07:17:58.323Z,76.57
2023-01-24T07:21:00.832Z,85.45
2023-01-24T07:24:03.393Z,77.43
2023-01-24T07:27:05.926Z,75.53
2023-01-24T07:30:08.838Z,75.90
2023-01-24T07:33:11.694Z,59.75
2023-01-24T07:36:15.595Z,73.32
2023-01-24T07:39:17.804Z,71.45
2023-01-24T07:42:20.157Z,76.05
2023-01-24T07:45:22.741Z,74.90
2023-01-24T07:48:25.103Z,76.40
2023-01-24T07:51:27.777Z,75.88
2023-01-24T07:54:29.908Z,82.85
2023-01-24T07:57:32.023Z,75.47
2023-01-24T08:00:34.617Z,80.32
2023-01-24T08:03:36.667Z,81.30
2023-01-24T08:07:00.618Z,77.13
2023-01-24T08:10:03.756Z,79.80
2023-01-24T08:13:06.065Z,82.47
2023-01-24T08:16:08.654Z,80.45
2023-01-24T08:19:10.863Z,84.90
2023-01-24T08:22:13.094Z,85.50
2023-01-24T08:25:15.417Z,77.80
2023-01-24T08:28:17.791Z,77.80
2023-01-24T08:31:19.976Z,78.55
2023-01-24T08:34:22.542Z,87.43
2023-01-24T08:37:24.826Z,88.38
2023-01-24T08:40:28.485Z,83.15
2023-01-24T08:43:32.417Z,87.03
2023-01-24T08:46:34.638Z,87.63
2023-01-24T08:49:36.800Z,78.03
2023-01-24T08:52:38.858Z,82.72
2023-01-24T08:55:41.491Z,80.38
2023-01-24T08:58:44.027Z,73.68
2023-01-24T09:01:46.196Z,73.45
2023-01-24T09:04:48.373Z,73.90
2023-01-24T09:07:51.309Z,71.22
2023-01-24T09:10:54.180Z,76.63
2023-01-24T09:13:56.450Z,69.43
2023-01-24T09:16:58.552Z,75.60
2023-01-24T09:20:00.816Z,72.22
2023-01-24T09:23:10.555Z,77.65
2023-01-24T09:29:14.971Z,72.38
2023-01-24T09:32:18.038Z,72.85
2023-01-24T09:35:20.485Z,70.40
2023-01-24T09:38:24.096Z,71.28
2023-01-24T09:42:17.375Z,83.60
2023-01-24T09:45:36.580Z,71.32
2023-01-24T09:48:39.335Z,73.35
2023-01-24T09:51:47.671Z,72.05
2023-01-24T09:55:18.040Z,77.78
2023-01-24T09:58:44.393Z,77.13
2023-01-24T10:01:51.869Z,71.93
2023-01-24T10:04:54.508Z,68.20
2023-01-24T10:08:13.540Z,70.00
2023-01-24T10:11:46.378Z,72.00
2023-01-24T10:14:48.370Z,61.97
2023-01-24T10:18:17.941Z,78.63
2023-01-24T10:21:34.367Z,72.55
2023-01-24T10:24:41.068Z,64.25
2023-01-24T10:27:46.631Z,63.33
2023-01-24T10:31:08.436Z,56.42
2023-01-24T10:34:17.539Z,59.13
2023-01-24T10:37:34.836Z,60.95
2023-01-24T10:40:56.882Z,59.30
2023-01-24T10:44:26.743Z,58.97
2023-01-24T10:47:57.577Z,62.10
2023-01-24T10:51:12.815Z,63.55
2023-01-24T10:54:24.547Z,65.57
2023-01-24T10:57:52.220Z,64.30
2023-01-24T11:00:59.812Z,63.38
2023-01-24T11:04:15.934Z,66.18
2023-01-24T11:07:33.434Z,64.43
2023-01-24T11:10:42.339Z,64.95
2023-01-24T11:13:45.323Z,67.82
2023-01-24T11:16:51.488Z,63.35
2023-01-24T11:20:05.780Z,70.35
2023-01-24T11:23:19.265Z,68.50
2023-01-24T11:26:30.252Z,71.38
2023-01-24T11:29:34.131Z,67.03
2023-01-24T11:32:46.341Z,67.43
2023-01-24T11:35:57.600Z,70.40
2023-01-24T11:39:16.199Z,61.97
2023-01-24T11:42:30.309Z,61.85
2023-01-24T11:45:50.873Z,60.42
2023-01-24T11:49:11.645Z,63.35
2023-01-24T11:52:59.021Z,63.90
2023-01-24T11:56:29.179Z,67.38
2023-01-24T11:59:46.152Z,66.07
2023-01-24T12:03:27.577Z,70.03
2023-01-24T12:07:01.988Z,58.50
2023-01-24T12:10:12.853Z,59.60
2023-01-24T12:13:22.962Z,60.50
2023-01-24T12:16:34.287Z,62.90
2023-01-24T12:19:54.485Z,59.13
2023-01-24T12:22:58.747Z,65.45
2023-01-24T12:26:17.508Z,68.85
2023-01-24T12:29:28.992Z,62.15
2023-01-24T12:32:46.051Z,66.32
2023-01-24T12:35:52.943Z,71.70
2023-01-24T12:39:01.732Z,62.92
2023-01-24T12:42:14.463Z,68.07
2023-01-24T12:45:52.676Z,60.97
2023-01-24T12:49:14.339Z,65.28
2023-01-24T12:52:58.844Z,61.63
2023-01-24T12:56:12.619Z,66.88
2023-01-24T12:59:17.935Z,65.75
2023-01-24T13:02:31.957Z,70.10
2023-01-24T13:05:57.048Z,66.93
2023-01-24T13:09:28.020Z,61.45
2023-01-24T13:16:04.315Z,62.05
2023-01-24T13:19:21.454Z,66.60
2023-01-24T13:22:35.375Z,63.95
2023-01-24T13:26:04.923Z,64.93
2023-01-24T13:29:58.061Z,72.35
2023-01-24T13:33:03.876Z,64.93
2023-01-24T13:36:08.190Z,68.45
2023-01-24T13:39:43.331Z,64.18
2023-01-24T13:42:45.685Z,66.97
2023-01-24T13:45:49.601Z,67.93
2023-01-24T13:48:57.227Z,71.80
2023-01-24T13:52:00.979Z,63.28
2023-01-24T13:55:06.193Z,71.57
2023-01-24T13:58:12.676Z,83.60
2023-01-24T14:01:18.574Z,75.68
2023-01-24T14:04:42.138Z,73.85
2023-01-24T14:07:45.396Z,74.07
2023-01-24T14:11:11.671Z,74.50
2023-01-24T14:14:35.826Z,67.85
2023-01-24T14:17:40.653Z,74.57
2023-01-24T14:20:47.145Z,79.15
2023-01-24T14:23:55.027Z,70.93
2023-01-24T14:27:00.021Z,72.32
2023-01-24T14:30:24.795Z,78.57
2023-01-24T14:33:52.578Z,80.47
2023-01-24T14:37:06.082Z,88.20
2023-01-24T14:40:17.496Z,80.45
2023-01-24T14:43:23.235Z,83.43
2023-01-24T14:46:25.993Z,87.53
2023-01-24T14:49:32.254Z,84.20
2023-01-24T14:52:39.078Z,87.85
2023-01-24T14:55:44.329Z,102.38
2023-01-24T14:58:46.479Z,99.20
2023-01-24T15:01:53.954Z,90.45
2023-01-24T15:04:56.259Z,105.20
2023-01-24T15:07:59.981Z,127.53
2023-01-24T15:11:17.973Z,118.53
2023-01-24T15:14:21.237Z,110.00
2023-01-24T15:17:29.176Z,102.07
2023-01-24T15:20:32.688Z,98.30
2023-01-24T15:23:35.681Z,103.10
2023-01-24T15:26:41.629Z,91.88
2023-01-24T15:29:50.026Z,103.10
2023-01-24T15:32:58.194Z,105.97
2023-01-24T15:36:00.314Z,95.93
2023-01-24T15:39:02.881Z,97.18
2023-01-24T15:42:36.870Z,76.00
2023-01-24T15:45:40.300Z,110.95
2023-01-24T15:48:58.021Z,99.43
2023-01-24T15:52:02.943Z,121.05
2023-01-24T15:55:06.889Z,99.95
2023-01-24T15:58:10.383Z,92.05
2023-01-24T16:01:12.967Z,88.18
2023-01-24T16:04:17.568Z,116.03
2023-01-24T16:07:20.073Z,114.35
2023-01-24T16:10:22.615Z,103.80
2023-01-24T16:13:40.634Z,125.20
2023-01-24T16:16:42.954Z,116.85
2023-01-24T16:19:45.335Z,86.25
2023-01-24T16:22:48.181Z,77.22
2023-01-24T16:25:55.797Z,69.82
2023-01-24T16:28:58.335Z,65.28
2023-01-24T16:32:00.547Z,60.28
2023-01-24T16:35:02.839Z,67.20
2023-01-24T16:38:05.497Z,64.25
2023-01-24T16:41:08.354Z,65.55
2023-01-24T16:44:10.775Z,67.68
2023-01-24T16:47:12.957Z,68.57
2023-01-24T16:50:17.517Z,69.60
2023-01-24T16:53:20.293Z,68.38
2023-01-24T16:56:23.608Z,74.47
2023-01-24T16:59:26.365Z,70.32
2023-01-24T17:02:29.051Z,60.90
2023-01-24T17:05:32.017Z,62.42
2023-01-24T17:08:35.547Z,65.10
2023-01-24T17:11:38.163Z,62.85
2023-01-24T17:14:41.692Z,71.13
2023-01-24T17:17:44.890Z,61.03
2023-01-24T17:20:48.846Z,56.47
2023-01-24T17:23:51.602Z,61.97
2023-01-24T17:26:54.299Z,56.88
2023-01-24T17:29:57.557Z,65.07
2023-01-24T17:33:00.955Z,62.22
2023-01-24T17:36:04.004Z,63.35
2023-01-24T17:39:08.100Z,62.05
2023-01-24T17:42:11.599Z,62.30
2023-01-24T17:45:14.698Z,69.25
2023-01-24T17:48:18.486Z,69.43
2023-01-24T17:51:21.456Z,69.75
2023-01-24T17:54:25.545Z,68.72
2023-01-24T17:57:29.393Z,72.05
2023-01-24T18:00:32.446Z,65.47
2023-01-24T18:03:35.613Z,68.38
2023-01-24T18:06:40.150Z,61.97
2023-01-24T18:09:43.325Z,65.68
2023-01-24T18:12:46.413Z,63.17
2023-01-24T18:16:02.406Z,66.97
2023-01-24T18:19:06.019Z,63.97
2023-01-24T18:22:10.451Z,59.28
2023-01-24T18:25:13.792Z,60.47
2023-01-24T18:28:17.108Z,64.93
2023-01-24T18:31:20.874Z,63.45
2023-01-24T18:34:25.675Z,64.65
2023-01-24T18:37:29.533Z,59.83
2023-01-24T18:40:34.305Z,64.68
2023-01-24T18:43:39.155Z,69.47
2023-01-24T18:46:43.535Z,63.17
2023-01-24T18:49:47.003Z,76.65
2023-01-24T18:52:57.293Z,65.82
2023-01-24T18:56:03.735Z,76.65
2023-01-24T18:59:07.553Z,71.15
2023-01-24T19:02:11.373Z,68.43
2023-01-24T19:05:15.091Z,67.65
2023-01-24T19:08:18.309Z,72.65
2023-01-24T19:11:21.915Z,79.28
2023-01-24T19:14:27.384Z,72.20
2023-01-24T19:17:30.927Z,68.20
2023-01-24T19:20:35.999Z,66.72
2023-01-24T19:23:40.898Z,71.32
2023-01-24T19:26:44.349Z,78.55
2023-01-24T19:29:47.987Z,82.85
2023-01-24T19:32:52.269Z,85.55
2023-01-24T19:35:56.460Z,82.63
2023-01-24T19:39:02.172Z,68.18
2023-01-24T19:42:07.487Z,61.13
2023-01-24T19:45:12.088Z,65.65
2023-01-24T19:48:16.595Z,63.67
2023-01-24T19:51:24.223Z,65.40
2023-01-24T19:54:28.064Z,69.53
2023-01-24T19:57:33.356Z,82.05
2023-01-24T20:00:38.077Z,72.22
2023-01-24T20:03:43.177Z,81.15
2023-01-24T20:06:46.218Z,83.35
2023-01-24T20:09:51.773Z,73.03
2023-01-24T20:12:55.339Z,81.10
2023-01-24T20:16:04.525Z,62.42
2023-01-24T20:19:18.541Z,58.70
2023-01-24T20:22:29.922Z,58.97
2023-01-24T20:25:36.061Z,61.45
2023-01-24T20:28:40.836Z,58.00
2023-01-24T20:31:48.219Z,58.95
2023-01-24T20:34:58.229Z,55.35
2023-01-24T20:38:01.913Z,57.08
2023-01-24T20:41:09.575Z,57.53
2023-01-24T20:44:25.619Z,58.03
2023-01-24T20:47:30.181Z,57.65
2023-01-24T20:50:33.643Z,62.75
2023-01-24T20:53:37.227Z,61.15
2023-01-24T20:56:41.947Z,60.97
2023-01-24T20:59:45.728Z,67.25
2023-01-24T21:02:53.071Z,68.05
2023-01-24T21:06:02.745Z,61.83
2023-01-24T21:09:08.027Z,68.15
2023-01-24T21:12:11.169Z,62.53
2023-01-24T21:15:14.266Z,59.42
2023-01-24T21:18:19.168Z,59.25
2023-01-24T21:21:26.725Z,61.45
2023-01-24T21:24:33.758Z,62.33
2023-01-24T21:27:37.711Z,63.95
2023-01-24T21:30:41.473Z,66.88
2023-01-24T21:33:45.050Z,67.00
2023-01-24T21:36:47.487Z,69.03
2023-01-24T21:39:49.863Z,63.88
2023-01-24T21:42:55.896Z,72.63
2023-01-24T21:45:58.121Z,68.70
2023-01-24T21:49:06.081Z,67.78
2023-01-24T21:52:12.853Z,75.50
2023-01-24T21:55:15.000Z,66.50
2023-01-24T21:58:17.118Z,68.45
2023-01-24T22:01:19.397Z,65.63
2023-01-24T22:04:22.704Z,67.78
2023-01-24T22:07:26.951Z,64.18
2023-01-24T22:10:31.666Z,66.30
2023-01-24T22:13:33.962Z,55.83
2023-01-24T22:16:36.421Z,61.83
2023-01-24T22:19:53.227Z,54.30
2023-01-24T22:23:09.267Z,62.75
2023-01-24T22:26:12.567Z,57.50
2023-01-24T22:29:14.921Z,66.13
2023-01-24T22:32:20.030Z,64.13
2023-01-24T22:35:24.983Z,58.50
2023-01-24T22:38:27.912Z,62.47
2023-01-24T22:41:30.074Z,55.95
2023-01-24T22:44:32.448Z,58.70
2023-01-24T22:47:35.689Z,61.90
2023-01-24T22:50:38.490Z,67.30
2023-01-24T22:53:40.660Z,57.90
2023-01-24T22:56:42.764Z,62.72
2023-01-24T22:59:44.915Z,62.83
2023-01-24T23:02:47.190Z,62.35
2023-01-24T23:05:49.692Z,65.07
2023-01-24T23:08:52.010Z,68.20
2023-01-24T23:11:54.103Z,67.82
2023-01-24T23:15:14.991Z,72.88
2023-01-24T23:18:42.947Z,69.05
2023-01-24T23:21:45.075Z,61.72
2023-01-24T23:24:48.019Z,72.18
2023-01-24T23:27:50.166Z,66.38
2023-01-24T23:31:04.024Z,65.20
2023-01-24T23:34:06.877Z,66.97
2023-01-24T23:37:09.202Z,67.47
2023-01-24T23:40:16.594Z,66.55
2023-01-24T23:43:19.615Z,64.70
2023-01-24T23:46:21.823Z,69.72
2023-01-24T23:49:24.283Z,70.28
2023-01-24T23:52:26.412Z,69.20
2023-01-24T23:55:28.690Z,68.47
2023-01-24T23:58:30.971Z,70.10
